createdAt,value
2018-10-03T00:00:59.028Z,100638.28
2018-10-03T00:03:28.354Z,100641.84
2018-10-03T00:05:57.779Z,100652.97
2018-10-03T00:08:26.902Z,100645.67
2018-10-03T00:10:55.971Z,100644.18
2018-10-03T00:13:25.307Z,100648.34
2018-10-03T00:15:55.108Z,100645.36
2018-10-03T00:18:23.964Z,100646.37
2018-10-03T00:20:52.754Z,100644.68
2018-10-03T00:23:22.303Z,100645.56
2018-10-03T00:25:51.281Z,100651.25
2018-10-03T00:28:20.529Z,100652.73
2018-10-03T00:30:49.439Z,100655.70
2018-10-03T00:33:18.608Z,100647.75
2018-10-03T00:35:47.622Z,100649.59
2018-10-03T00:38:16.849Z,100655.75
2018-10-03T00:40:45.593Z,100642.09
2018-10-03T00:43:14.254Z,100644.60
2018-10-03T00:45:43.146Z,100641.48
2018-10-03T00:48:12.666Z,100643.48
2018-10-03T00:50:41.745Z,100638.13
2018-10-03T00:53:12.591Z,100644.20
2018-10-03T00:55:43.521Z,100642.20
2018-10-03T00:58:12.922Z,100644.20
2018-10-03T01:00:44.703Z,100654.54
2018-10-03T01:03:14.807Z,100636.04
2018-10-03T01:05:44.150Z,100645.53
2018-10-03T01:08:13.990Z,100648.70
2018-10-03T01:10:43.111Z,100652.88
2018-10-03T01:13:12.421Z,100651.49
2018-10-03T01:15:41.487Z,100657.20
2018-10-03T01:18:10.656Z,100646.97
2018-10-03T01:20:39.513Z,100639.80
2018-10-03T01:23:08.537Z,100645.81
2018-10-03T01:25:37.317Z,100649.77
2018-10-03T01:28:06.074Z,100669.45
2018-10-03T01:30:36.951Z,100655.75
2018-10-03T01:33:06.397Z,100653.74
2018-10-03T01:35:36.680Z,100638.06
2018-10-03T01:38:05.922Z,100647.31
2018-10-03T01:40:34.874Z,100645.33
2018-10-03T01:43:03.639Z,100659.50
2018-10-03T01:45:33.609Z,100666.55
2018-10-03T01:48:03.403Z,100669.71
2018-10-03T01:50:33.568Z,100681.34
2018-10-03T01:53:03.971Z,100676.73
2018-10-03T01:55:34.694Z,100683.44
2018-10-03T01:58:04.412Z,100684.79
2018-10-03T02:00:34.435Z,100684.34
2018-10-03T02:03:04.360Z,100686.62
2018-10-03T02:05:33.158Z,100686.18
2018-10-03T02:08:04.545Z,100683.39
2018-10-03T02:10:34.847Z,100688.06
2018-10-03T02:13:05.115Z,100690.39
2018-10-03T02:15:34.380Z,100685.06
2018-10-03T02:18:04.573Z,100689.06
2018-10-03T02:20:34.887Z,100682.39
2018-10-03T02:23:05.093Z,100681.73
2018-10-03T02:25:34.415Z,100695.27
2018-10-03T02:28:03.525Z,100692.40
2018-10-03T02:30:32.666Z,100681.39
2018-10-03T02:33:02.646Z,100692.84
2018-10-03T02:35:31.881Z,100681.05
2018-10-03T02:38:01.063Z,100685.89
2018-10-03T02:40:30.494Z,100683.39
2018-10-03T02:43:00.101Z,100682.88
2018-10-03T02:45:29.506Z,100684.84
2018-10-03T02:47:58.444Z,100688.67
2018-10-03T02:50:27.530Z,100702.02
2018-10-03T02:52:56.807Z,100696.97
2018-10-03T02:55:26.383Z,100703.34
2018-10-03T02:57:57.559Z,100715.13
2018-10-03T03:00:26.751Z,100698.95
2018-10-03T03:02:57.012Z,100695.96
2018-10-03T03:05:26.471Z,100697.63
2018-10-03T03:07:56.830Z,100698.83
2018-10-03T03:10:27.255Z,100698.73
2018-10-03T03:12:57.079Z,100697.45
2018-10-03T03:15:26.690Z,100701.75
2018-10-03T03:17:56.858Z,100698.11
2018-10-03T03:20:26.392Z,100694.45
2018-10-03T03:22:55.462Z,100685.63
2018-10-03T03:25:24.554Z,100693.45
2018-10-03T03:27:54.623Z,100701.13
2018-10-03T03:30:24.169Z,100705.13
2018-10-03T03:32:52.951Z,100701.50
2018-10-03T03:35:21.843Z,100718.45
2018-10-03T03:37:50.910Z,100699.83
2018-10-03T03:40:19.843Z,100705.83
2018-10-03T03:42:49.122Z,100720.48
2018-10-03T03:45:18.299Z,100705.45
2018-10-03T03:47:47.661Z,100707.78
2018-10-03T03:50:16.583Z,100696.12
2018-10-03T03:52:46.553Z,100704.28
2018-10-03T03:55:16.240Z,100703.80
2018-10-03T03:57:45.960Z,100706.45
2018-10-03T04:00:15.645Z,100715.95
2018-10-03T04:02:45.355Z,100720.12
2018-10-03T04:05:14.403Z,100711.12
2018-10-03T04:07:43.632Z,100704.95
2018-10-03T04:10:13.986Z,100709.28
2018-10-03T04:12:43.201Z,100721.12
2018-10-03T04:15:12.879Z,100712.78
2018-10-03T04:17:42.194Z,100705.12
2018-10-03T04:20:12.130Z,100707.13
2018-10-03T04:22:41.211Z,100713.75
2018-10-03T04:25:11.323Z,100714.08
2018-10-03T04:27:40.236Z,100716.61
2018-10-03T04:30:11.407Z,100716.11
2018-10-03T04:32:40.295Z,100723.78
2018-10-03T04:35:10.506Z,100729.44
2018-10-03T04:37:40.305Z,100730.44
2018-10-03T04:40:09.368Z,100726.73
2018-10-03T04:42:39.024Z,100728.73
2018-10-03T04:45:09.525Z,100714.02
2018-10-03T04:47:39.764Z,100733.34
2018-10-03T04:50:09.192Z,100727.68
2018-10-03T04:52:39.239Z,100747.06
2018-10-03T04:55:09.332Z,100729.73
2018-10-03T04:57:38.350Z,100726.27
2018-10-03T05:00:08.307Z,100739.27
2018-10-03T05:02:37.352Z,100751.08
2018-10-03T05:05:06.627Z,100754.28
2018-10-03T05:07:36.542Z,100761.44
2018-10-03T05:10:05.622Z,100765.94
2018-10-03T05:12:34.575Z,100761.77
2018-10-03T05:15:03.608Z,100775.44
2018-10-03T05:17:32.500Z,100772.06
2018-10-03T05:20:01.626Z,100769.23
2018-10-03T05:22:30.945Z,100767.44
2018-10-03T05:25:00.445Z,100776.07
2018-10-03T05:27:29.932Z,100768.91
2018-10-03T05:29:58.632Z,100770.73
2018-10-03T05:32:27.580Z,100781.06
2018-10-03T05:34:56.573Z,100798.44
2018-10-03T05:37:25.323Z,100779.89
2018-10-03T05:39:54.114Z,100783.73
2018-10-03T05:42:23.019Z,100779.40
2018-10-03T05:44:52.078Z,100798.39
2018-10-03T05:47:21.063Z,100782.44
2018-10-03T05:49:49.957Z,100791.44
2018-10-03T05:52:19.061Z,100820.27
2018-10-03T05:54:48.082Z,100794.73
2018-10-03T05:57:17.121Z,100804.06
2018-10-03T05:59:45.942Z,100808.73
2018-10-03T06:02:15.939Z,100828.87
2018-10-03T06:04:45.040Z,100830.70
2018-10-03T06:07:14.195Z,100828.20
2018-10-03T06:09:44.564Z,100822.03
2018-10-03T06:12:15.951Z,100830.70
2018-10-03T06:14:44.855Z,100837.00
2018-10-03T06:17:13.664Z,100836.83
2018-10-03T06:19:44.589Z,100846.38
2018-10-03T06:22:14.664Z,100858.67
2018-10-03T06:24:44.877Z,100859.67
2018-10-03T06:27:13.582Z,100860.84
2018-10-03T06:29:42.954Z,100864.97
2018-10-03T06:32:11.833Z,100862.84
2018-10-03T06:34:41.241Z,100858.30
2018-10-03T06:37:10.131Z,100861.93
2018-10-03T06:39:39.270Z,100868.94
2018-10-03T06:42:08.337Z,100870.06
2018-10-03T06:44:37.313Z,100873.57
2018-10-03T06:47:06.509Z,100875.52
2018-10-03T06:49:35.820Z,100871.19
2018-10-03T06:52:04.840Z,100881.20
2018-10-03T06:54:33.971Z,100875.70
2018-10-03T06:57:03.056Z,100880.23
2018-10-03T06:59:32.053Z,100888.20
2018-10-03T07:02:00.882Z,100905.59
2018-10-03T07:04:29.790Z,100903.25
2018-10-03T07:06:58.665Z,100897.87
2018-10-03T07:09:28.026Z,100914.55
2018-10-03T07:11:56.962Z,100917.02
2018-10-03T07:14:25.912Z,100916.56
2018-10-03T07:16:55.591Z,100926.06
2018-10-03T07:19:24.393Z,100914.52
2018-10-03T07:21:55.530Z,100919.19
2018-10-03T07:24:24.846Z,100931.50
2018-10-03T07:26:54.562Z,100933.45
2018-10-03T07:29:25.228Z,100941.96
2018-10-03T07:31:54.123Z,100953.81
2018-10-03T07:34:23.521Z,100952.01
2018-10-03T07:36:52.723Z,100961.77
2018-10-03T07:39:22.637Z,100956.81
2018-10-03T07:41:53.264Z,100967.00
2018-10-03T07:44:22.431Z,100979.14
2018-10-03T07:46:51.459Z,100967.78
2018-10-03T07:49:20.402Z,100967.94
2018-10-03T07:51:49.350Z,100974.80
2018-10-03T07:54:18.244Z,100978.02
2018-10-03T07:56:47.067Z,100971.19
2018-10-03T07:59:16.853Z,100986.94
2018-10-03T08:01:46.145Z,100982.96
2018-10-03T08:04:15.161Z,100989.45
2018-10-03T08:06:44.072Z,100991.65
2018-10-03T08:09:12.894Z,100992.15
2018-10-03T08:11:41.876Z,101000.45
2018-10-03T08:14:10.901Z,101001.06
2018-10-03T08:16:41.614Z,100995.25
2018-10-03T08:19:10.638Z,100993.41
2018-10-03T08:21:40.540Z,101003.42
2018-10-03T08:24:11.638Z,101007.20
2018-10-03T08:29:24.181Z,101022.59
2018-10-03T08:31:53.216Z,101011.58
2018-10-03T08:34:22.357Z,101012.83
2018-10-03T08:36:51.380Z,101026.60
2018-10-03T08:39:20.343Z,101035.58
2018-10-03T08:41:49.522Z,101026.62
2018-10-03T08:44:18.796Z,101031.52
2018-10-03T08:46:48.648Z,101041.27
2018-10-03T08:49:18.220Z,101058.33
2018-10-03T08:51:47.410Z,101059.63
2018-10-03T08:54:17.988Z,101055.97
2018-10-03T08:56:50.854Z,101054.13
2018-10-03T08:59:21.843Z,101065.02
2018-10-03T09:01:50.867Z,101064.02
2018-10-03T09:04:21.198Z,101078.64
2018-10-03T09:06:50.140Z,101080.59
2018-10-03T09:09:19.623Z,101083.98
2018-10-03T09:11:50.553Z,101076.24
2018-10-03T09:14:20.671Z,101090.91
2018-10-03T09:16:49.646Z,101103.36
2018-10-03T09:19:19.015Z,101108.39
2018-10-03T09:21:48.776Z,101097.52
2018-10-03T09:24:18.713Z,101101.43
2018-10-03T09:26:48.171Z,101119.83
2018-10-03T09:29:18.133Z,101122.80
2018-10-03T09:31:49.233Z,101119.97
2018-10-03T09:34:18.534Z,101125.81
2018-10-03T09:36:47.337Z,101138.82
2018-10-03T09:39:16.548Z,101138.82
2018-10-03T09:41:45.452Z,101141.23
2018-10-03T09:44:15.162Z,101140.55
2018-10-03T09:46:44.698Z,101167.19
2018-10-03T09:49:14.171Z,101165.20
2018-10-03T09:51:43.255Z,101176.87
2018-10-03T09:54:12.242Z,101170.60
2018-10-03T09:56:41.105Z,101170.78
2018-10-03T09:59:10.032Z,101178.15
2018-10-03T10:01:38.910Z,101181.27
2018-10-03T10:04:07.757Z,101183.02
2018-10-03T10:06:36.599Z,101184.77
2018-10-03T10:09:08.068Z,101199.11
2018-10-03T10:11:37.246Z,101206.73
2018-10-03T10:14:05.900Z,101202.92
2018-10-03T10:16:35.559Z,101213.68
2018-10-03T10:19:05.783Z,101195.52
2018-10-03T10:21:36.584Z,101206.86
2018-10-03T10:24:05.943Z,101212.25
2018-10-03T10:26:36.046Z,101202.42
2018-10-03T10:29:06.886Z,101203.94
2018-10-03T10:31:36.394Z,101219.87
2018-10-03T10:34:05.545Z,101205.69
2018-10-03T10:36:34.915Z,101206.77
2018-10-03T10:39:05.635Z,101215.07
2018-10-03T10:41:35.800Z,101214.80
2018-10-03T10:44:04.799Z,101217.95
2018-10-03T10:46:34.112Z,101225.61
2018-10-03T10:49:04.412Z,101231.41
2018-10-03T10:51:34.752Z,101252.69
2018-10-03T10:54:04.116Z,101258.45
2018-10-03T10:56:33.251Z,101258.89
2018-10-03T10:59:04.918Z,101257.52
2018-10-03T11:01:34.233Z,101269.14
2018-10-03T11:04:03.362Z,101264.16
2018-10-03T11:06:33.377Z,101274.98
2018-10-03T11:09:05.779Z,101267.08
2018-10-03T11:11:37.207Z,101273.23
2018-10-03T11:14:09.622Z,101272.72
2018-10-03T11:16:39.791Z,101282.88
2018-10-03T11:19:08.918Z,101276.64
2018-10-03T11:21:38.766Z,101291.16
2018-10-03T11:24:08.244Z,101310.08
2018-10-03T11:26:37.469Z,101320.08
2018-10-03T11:29:08.101Z,101344.04
2018-10-03T11:31:37.505Z,101320.92
2018-10-03T11:34:07.286Z,101303.75
2018-10-03T11:36:37.628Z,101304.13
2018-10-03T11:39:09.874Z,101312.80
2018-10-03T11:41:39.457Z,101315.72
2018-10-03T11:44:12.001Z,101325.05
2018-10-03T11:46:42.481Z,101333.67
2018-10-03T11:49:11.390Z,101323.39
2018-10-03T11:51:42.437Z,101325.47
2018-10-03T11:54:11.452Z,101327.64
2018-10-03T11:56:40.729Z,101337.70
2018-10-03T11:59:10.427Z,101330.44
2018-10-03T12:01:40.515Z,101337.16
2018-10-03T12:04:09.892Z,101327.77
2018-10-03T12:06:38.891Z,101328.77
2018-10-03T12:09:13.391Z,101339.77
2018-10-03T12:11:42.964Z,101326.58
2018-10-03T12:14:13.239Z,101327.41
2018-10-03T12:16:43.042Z,101329.09
2018-10-03T12:19:12.263Z,101338.06
2018-10-03T12:21:42.025Z,101336.15
2018-10-03T12:24:11.145Z,101337.66
2018-10-03T12:26:40.277Z,101350.83
2018-10-03T12:29:09.160Z,101356.30
2018-10-03T12:31:38.104Z,101345.67
2018-10-03T12:34:09.050Z,101359.30
2018-10-03T12:36:39.783Z,101366.61
2018-10-03T12:39:09.987Z,101357.88
2018-10-03T12:41:39.723Z,101366.58
2018-10-03T12:44:09.287Z,101355.76
2018-10-03T12:46:38.816Z,101355.36
2018-10-03T12:49:07.730Z,101375.19
2018-10-03T12:51:37.311Z,101373.73
2018-10-03T12:54:07.593Z,101379.75
2018-10-03T12:56:37.015Z,101373.65
2018-10-03T12:59:06.599Z,101369.63
2018-10-03T13:01:36.743Z,101382.73
2018-10-03T13:04:08.828Z,101371.40
2018-10-03T13:06:38.641Z,101384.70
2018-10-03T13:09:11.247Z,101385.47
2018-10-03T13:11:40.443Z,101398.86
2018-10-03T13:14:09.607Z,101400.05
2018-10-03T13:16:38.613Z,101408.77
2018-10-03T13:19:07.684Z,101407.00
2018-10-03T13:21:37.344Z,101407.42
2018-10-03T13:24:06.493Z,101411.97
2018-10-03T13:26:36.193Z,101416.69
2018-10-03T13:29:05.099Z,101424.56
2018-10-03T13:31:34.827Z,101421.95
2018-10-03T13:34:03.817Z,101418.95
2018-10-03T13:36:33.579Z,101428.14
2018-10-03T13:39:02.728Z,101430.73
2018-10-03T13:41:31.790Z,101430.98
2018-10-03T13:44:00.612Z,101439.14
2018-10-03T13:46:29.850Z,101434.96
2018-10-03T13:48:59.242Z,101433.23
2018-10-03T13:51:28.212Z,101444.81
2018-10-03T13:53:57.753Z,101437.09
2018-10-03T13:56:27.802Z,101439.18
2018-10-03T13:58:57.589Z,101441.23
2018-10-03T14:01:28.723Z,101456.52
2018-10-03T14:03:57.878Z,101448.38
2018-10-03T14:06:26.934Z,101456.03
2018-10-03T14:08:56.460Z,101459.55
2018-10-03T14:11:26.374Z,101459.14
2018-10-03T14:13:57.565Z,101477.13
2018-10-03T14:16:28.548Z,101477.00
2018-10-03T14:18:58.460Z,101478.36
2018-10-03T14:21:28.131Z,101479.56
2018-10-03T14:23:57.882Z,101484.65
2018-10-03T14:26:27.449Z,101484.19
2018-10-03T14:28:57.578Z,101489.70
2018-10-03T14:31:26.728Z,101482.69
2018-10-03T14:33:56.978Z,101489.00
2018-10-03T14:36:27.373Z,101492.88
2018-10-03T14:38:56.663Z,101494.37
2018-10-03T14:41:26.815Z,101496.05
2018-10-03T14:43:57.703Z,101487.19
2018-10-03T14:46:27.453Z,101502.52
2018-10-03T14:48:57.020Z,101512.10
2018-10-03T14:51:26.650Z,101507.92
2018-10-03T14:53:55.748Z,101505.30
2018-10-03T14:56:25.727Z,101516.50
2018-10-03T14:58:55.661Z,101514.65
2018-10-03T15:01:26.869Z,101528.23
2018-10-03T15:03:55.715Z,101534.08
2018-10-03T15:06:24.565Z,101538.82
2018-10-03T15:08:54.090Z,101547.21
2018-10-03T15:11:23.648Z,101544.74
2018-10-03T15:13:54.228Z,101552.66
2018-10-03T15:16:24.045Z,101551.31
2018-10-03T15:18:52.815Z,101555.40
2018-10-03T15:21:23.150Z,101559.42
2018-10-03T15:23:52.734Z,101553.64
2018-10-03T15:26:22.468Z,101565.23
2018-10-03T15:28:51.934Z,101569.63
2018-10-03T15:31:20.855Z,101573.28
2018-10-03T15:33:50.265Z,101577.00
2018-10-03T15:36:21.326Z,101577.34
2018-10-03T15:38:51.329Z,101577.00
2018-10-03T15:41:21.966Z,101580.02
2018-10-03T15:43:51.265Z,101586.07
2018-10-03T15:46:21.055Z,101585.56
2018-10-03T15:48:50.625Z,101589.95
2018-10-03T15:51:20.610Z,101601.30
2018-10-03T15:53:50.131Z,101608.53
2018-10-03T15:56:19.167Z,101610.70
2018-10-03T15:58:47.982Z,101607.89
2018-10-03T16:01:16.958Z,101608.25
2018-10-03T16:03:46.051Z,101612.95
2018-10-03T16:06:15.300Z,101615.63
2018-10-03T16:08:44.768Z,101616.81
2018-10-03T16:11:14.166Z,101618.17
2018-10-03T16:13:42.970Z,101620.84
2018-10-03T16:16:12.171Z,101623.03
2018-10-03T16:18:41.084Z,101624.88
2018-10-03T16:21:10.031Z,101629.05
2018-10-03T16:23:39.778Z,101631.55
2018-10-03T16:26:09.718Z,101629.39
2018-10-03T16:28:38.792Z,101631.05
2018-10-03T16:31:08.091Z,101638.94
2018-10-03T16:33:39.123Z,101641.78
2018-10-03T16:36:08.889Z,101654.14
2018-10-03T16:38:41.189Z,101655.50
2018-10-03T16:41:11.818Z,101659.83
2018-10-03T16:43:40.937Z,101661.34
2018-10-03T16:46:10.815Z,101669.69
2018-10-03T16:48:39.820Z,101668.84
2018-10-03T16:51:09.055Z,101669.70
2018-10-03T16:53:39.821Z,101676.86
2018-10-03T16:56:09.038Z,101673.67
2018-10-03T16:58:47.946Z,101686.23
2018-10-03T17:01:17.991Z,101688.58
2018-10-03T17:03:47.739Z,101687.21
2018-10-03T17:06:20.851Z,101693.56
2018-10-03T17:08:50.675Z,101690.55
2018-10-03T17:11:22.005Z,101700.38
2018-10-03T17:14:18.378Z,101694.20
2018-10-03T17:16:47.912Z,101693.85
2018-10-03T17:19:17.183Z,101690.80
2018-10-03T17:21:47.417Z,101694.48
2018-10-03T17:24:18.146Z,101697.30
2018-10-03T17:26:47.959Z,101707.84
2018-10-03T17:29:18.470Z,101710.67
2018-10-03T17:31:50.642Z,101712.16
2018-10-03T17:34:21.485Z,101712.16
2018-10-03T17:36:52.543Z,101721.52
2018-10-03T17:39:22.942Z,101722.33
2018-10-03T17:41:52.762Z,101725.16
2018-10-03T17:44:24.729Z,101728.52
2018-10-03T17:46:57.772Z,101738.17
2018-10-03T17:49:27.721Z,101738.86
2018-10-03T17:51:57.371Z,101745.88
2018-10-03T17:54:27.560Z,101750.73
2018-10-03T17:56:56.657Z,101759.25
2018-10-03T17:59:26.667Z,101758.26
2018-10-03T18:01:58.270Z,101762.77
2018-10-03T18:04:27.907Z,101764.94
2018-10-03T18:06:57.358Z,101763.91
2018-10-03T18:09:27.295Z,101764.94
2018-10-03T18:11:56.699Z,101776.63
2018-10-03T18:14:26.466Z,101769.64
2018-10-03T18:16:57.327Z,101779.04
2018-10-03T18:19:27.259Z,101780.38
2018-10-03T18:21:57.015Z,101786.22
2018-10-03T18:24:27.151Z,101783.89
2018-10-03T18:26:56.499Z,101790.38
2018-10-03T18:29:26.472Z,101789.01
2018-10-03T18:31:56.306Z,101793.55
2018-10-03T18:34:26.319Z,101799.02
2018-10-03T18:36:55.432Z,101795.34
2018-10-03T18:39:25.182Z,101803.36
2018-10-03T18:41:54.448Z,101788.66
2018-10-03T18:44:24.592Z,101793.66
2018-10-03T18:46:53.715Z,101797.95
2018-10-03T18:49:22.615Z,101803.59
2018-10-03T18:51:51.572Z,101810.28
2018-10-03T18:54:20.743Z,101820.47
2018-10-03T18:56:51.632Z,101816.77
2018-10-03T18:59:20.666Z,101832.30
2018-10-03T19:01:49.784Z,101823.44
2018-10-03T19:04:18.666Z,101830.95
2018-10-03T19:06:47.508Z,101827.94
2018-10-03T19:09:16.657Z,101825.20
2018-10-03T19:11:46.039Z,101828.81
2018-10-03T19:14:15.439Z,101839.83
2018-10-03T19:16:45.383Z,101841.52
2018-10-03T19:19:15.699Z,101844.12
2018-10-03T19:21:44.545Z,101850.08
2018-10-03T19:24:14.267Z,101856.41
2018-10-03T19:26:43.998Z,101851.91
2018-10-03T19:29:13.849Z,101854.04
2018-10-03T19:31:44.562Z,101855.12
2018-10-03T19:34:16.890Z,101848.88
2018-10-03T19:36:46.414Z,101856.82
2018-10-03T19:39:16.819Z,101860.59
2018-10-03T19:41:47.532Z,101859.03
2018-10-03T19:44:17.660Z,101864.02
2018-10-03T19:46:46.709Z,101867.86
2018-10-03T19:49:16.093Z,101867.91
2018-10-03T19:51:45.572Z,101875.07
2018-10-03T19:54:15.590Z,101888.55
2018-10-03T19:56:44.357Z,101879.85
2018-10-03T19:59:15.459Z,101887.54
2018-10-03T20:01:47.028Z,101890.84
2018-10-03T20:04:16.526Z,101891.83
2018-10-03T20:06:46.199Z,101900.12
2018-10-03T20:09:16.079Z,101898.00
2018-10-03T20:11:46.225Z,101901.77
2018-10-03T20:14:15.369Z,101900.92
2018-10-03T20:16:45.341Z,101905.66
2018-10-03T20:19:14.600Z,101899.77
2018-10-03T20:21:43.653Z,101891.80
2018-10-03T20:24:12.980Z,101902.89
2018-10-03T20:26:42.847Z,101904.23
2018-10-03T20:29:12.358Z,101902.89
2018-10-03T20:31:41.720Z,101907.25
2018-10-03T20:34:11.155Z,101908.16
2018-10-03T20:36:40.385Z,101910.16
2018-10-03T20:39:09.938Z,101910.27
2018-10-03T20:41:39.091Z,101911.03
2018-10-03T20:44:08.188Z,101910.75
2018-10-03T20:46:37.602Z,101910.41
2018-10-03T20:49:08.780Z,101916.48
2018-10-03T20:51:38.348Z,101917.22
2018-10-03T20:54:08.930Z,101920.38
2018-10-03T20:56:39.030Z,101923.81
2018-10-03T20:59:08.669Z,101926.89
2018-10-03T21:01:38.246Z,101922.13
2018-10-03T21:04:07.405Z,101922.13
2018-10-03T21:06:36.681Z,101925.28
2018-10-03T21:09:09.751Z,101927.11
2018-10-03T21:11:38.933Z,101931.81
2018-10-03T21:14:09.184Z,101928.72
2018-10-03T21:16:38.175Z,101934.02
2018-10-03T21:19:07.791Z,101932.61
2018-10-03T21:21:37.264Z,101923.94
2018-10-03T21:24:07.122Z,101942.17
2018-10-03T21:26:37.703Z,101942.27
2018-10-03T21:29:07.389Z,101945.30
2018-10-03T21:31:37.259Z,101938.28
2018-10-03T21:34:07.132Z,101941.52
2018-10-03T21:36:36.677Z,101934.45
2018-10-03T21:39:07.572Z,101937.79
2018-10-03T21:41:37.091Z,101939.29
2018-10-03T21:44:06.646Z,101937.39
2018-10-03T21:46:35.748Z,101944.05
2018-10-03T21:49:08.598Z,101935.61
2018-10-03T21:51:38.766Z,101931.52
2018-10-03T21:54:09.643Z,101934.19
2018-10-03T21:56:39.947Z,101936.85
2018-10-03T21:59:10.524Z,101942.45
2018-10-03T22:01:39.983Z,101940.67
2018-10-03T22:04:09.882Z,101938.63
2018-10-03T22:06:40.303Z,101940.05
2018-10-03T22:09:09.914Z,101940.62
2018-10-03T22:11:39.632Z,101940.27
2018-10-03T22:14:09.722Z,101939.22
2018-10-03T22:16:39.946Z,101943.29
2018-10-03T22:19:09.457Z,101937.38
2018-10-03T22:21:39.323Z,101934.13
2018-10-03T22:24:11.358Z,101934.83
2018-10-03T22:26:40.879Z,101939.25
2018-10-03T22:29:10.143Z,101932.44
2018-10-03T22:31:40.975Z,101913.54
2018-10-03T22:34:12.035Z,101938.71
2018-10-03T22:36:42.848Z,101944.67
2018-10-03T22:39:14.302Z,101939.29
2018-10-03T22:41:43.434Z,101937.48
2018-10-03T22:44:12.603Z,101936.91
2018-10-03T22:46:42.568Z,101942.05
2018-10-03T22:49:12.727Z,101948.63
2018-10-03T22:51:42.797Z,101942.50
2018-10-03T22:54:14.385Z,101949.34
2018-10-03T22:56:44.160Z,101951.25
2018-10-03T22:59:13.241Z,101953.56
2018-10-03T23:01:43.530Z,101955.37
2018-10-03T23:04:12.752Z,101959.16
2018-10-03T23:06:42.442Z,101955.30
2018-10-03T23:09:12.839Z,101951.73
2018-10-03T23:11:42.616Z,101951.30
2018-10-03T23:14:13.000Z,101955.73
2018-10-03T23:16:43.298Z,101962.66
2018-10-03T23:19:14.326Z,101958.17
2018-10-03T23:21:44.234Z,101954.09
2018-10-03T23:24:14.160Z,101956.77
2018-10-03T23:26:45.127Z,101955.21
2018-10-03T23:29:15.847Z,101951.92
2018-10-03T23:31:45.660Z,101967.29
2018-10-03T23:34:16.421Z,101959.16
2018-10-03T23:36:45.935Z,101962.22
2018-10-03T23:39:15.413Z,101962.94
2018-10-03T23:41:44.833Z,101967.42
2018-10-03T23:44:15.201Z,101968.22
2018-10-03T23:46:44.347Z,101970.88
2018-10-03T23:49:14.266Z,101971.59
2018-10-03T23:51:43.975Z,101971.02
2018-10-03T23:54:13.378Z,101975.99
2018-10-03T23:56:43.859Z,101973.27
2018-10-03T23:59:13.747Z,101979.85
